sensor_id;sensor_type;location;lat;lon;timestamp;P1;durP1;ratioP1;P2;durP2;ratioP2
11921;SDS011;6021;51.182;3.160;2022-10-19T00:00:12;7.10;;;2.80;;
11921;SDS011;6021;51.182;3.160;2022-10-19T00:02:41;12.07;;;3.70;;
11921;SDS011;6021;51.182;3.160;2022-10-19T00:05:10;8.30;;;3.37;;
11921;SDS011;6021;51.182;3.160;2022-10-19T00:07:39;11.60;;;3.77;;
11921;SDS011;6021;51.182;3.160;2022-10-19T00:10:08;9.13;;;3.50;;
11921;SDS011;6021;51.182;3.160;2022-10-19T00:12:46;9.43;;;3.30;;
11921;SDS011;6021;51.182;3.160;2022-10-19T00:17:51;5.27;;;2.93;;
11921;SDS011;6021;51.182;3.160;2022-10-19T00:20:19;9.77;;;3.90;;
11921;SDS011;6021;51.182;3.160;2022-10-19T00:22:49;9.93;;;3.60;;
11921;SDS011;6021;51.182;3.160;2022-10-19T00:25:18;11.03;;;3.90;;
11921;SDS011;6021;51.182;3.160;2022-10-19T00:27:46;10.05;;;3.90;;
11921;SDS011;6021;51.182;3.160;2022-10-19T00:30:14;6.63;;;3.60;;
11921;SDS011;6021;51.182;3.160;2022-10-19T00:32:43;8.23;;;4.03;;
11921;SDS011;6021;51.182;3.160;2022-10-19T00:37:45;14.10;;;3.90;;
11921;SDS011;6021;51.182;3.160;2022-10-19T00:40:13;8.10;;;3.80;;
11921;SDS011;6021;51.182;3.160;2022-10-19T00:42:42;6.67;;;3.40;;
11921;SDS011;6021;51.182;3.160;2022-10-19T00:45:11;11.60;;;4.20;;
11921;SDS011;6021;51.182;3.160;2022-10-19T00:47:42;9.63;;;4.33;;
11921;SDS011;6021;51.182;3.160;2022-10-19T00:50:12;10.00;;;4.37;;
11921;SDS011;6021;51.182;3.160;2022-10-19T00:52:42;9.53;;;4.20;;
11921;SDS011;6021;51.182;3.160;2022-10-19T00:55:12;10.67;;;4.30;;
11921;SDS011;6021;51.182;3.160;2022-10-19T00:57:41;9.20;;;4.10;;
11921;SDS011;6021;51.182;3.160;2022-10-19T01:00:10;10.90;;;4.20;;
11921;SDS011;6021;51.182;3.160;2022-10-19T01:05:16;10.23;;;4.23;;
11921;SDS011;6021;51.182;3.160;2022-10-19T01:07:45;13.17;;;4.53;;
11921;SDS011;6021;51.182;3.160;2022-10-19T01:10:13;11.30;;;4.87;;
11921;SDS011;6021;51.182;3.160;2022-10-19T01:15:40;9.43;;;4.93;;
11921;SDS011;6021;51.182;3.160;2022-10-19T01:18:23;11.43;;;5.00;;
11921;SDS011;6021;51.182;3.160;2022-10-19T01:21:11;8.20;;;4.50;;
11921;SDS011;6021;51.182;3.160;2022-10-19T01:24:00;9.57;;;4.77;;
11921;SDS011;6021;51.182;3.160;2022-10-19T01:29:59;9.53;;;4.63;;
11921;SDS011;6021;51.182;3.160;2022-10-19T01:35:41;9.40;;;4.80;;
11921;SDS011;6021;51.182;3.160;2022-10-19T01:41:14;11.90;;;4.70;;
11921;SDS011;6021;51.182;3.160;2022-10-19T01:43:51;10.83;;;4.60;;
11921;SDS011;6021;51.182;3.160;2022-10-19T01:46:26;15.73;;;5.33;;
11921;SDS011;6021;51.182;3.160;2022-10-19T01:49:06;11.97;;;5.10;;
11921;SDS011;6021;51.182;3.160;2022-10-19T01:51:32;12.13;;;4.80;;
11921;SDS011;6021;51.182;3.160;2022-10-19T01:54:03;11.13;;;5.20;;
11921;SDS011;6021;51.182;3.160;2022-10-19T01:56:34;10.80;;;5.23;;
11921;SDS011;6021;51.182;3.160;2022-10-19T01:59:05;10.97;;;4.87;;
11921;SDS011;6021;51.182;3.160;2022-10-19T02:01:36;9.47;;;5.00;;
11921;SDS011;6021;51.182;3.160;2022-10-19T02:04:07;10.40;;;4.70;;
11921;SDS011;6021;51.182;3.160;2022-10-19T02:06:36;8.90;;;4.70;;
11921;SDS011;6021;51.182;3.160;2022-10-19T02:09:05;10.47;;;4.73;;
11921;SDS011;6021;51.182;3.160;2022-10-19T02:14:10;11.70;;;5.80;;
11921;SDS011;6021;51.182;3.160;2022-10-19T02:16:46;15.43;;;5.97;;
11921;SDS011;6021;51.182;3.160;2022-10-19T02:21:43;12.63;;;6.17;;
11921;SDS011;6021;51.182;3.160;2022-10-19T02:24:13;13.80;;;5.80;;
11921;SDS011;6021;51.182;3.160;2022-10-19T02:26:45;15.43;;;6.30;;
11921;SDS011;6021;51.182;3.160;2022-10-19T02:29:14;13.97;;;6.53;;
11921;SDS011;6021;51.182;3.160;2022-10-19T02:31:43;14.03;;;6.20;;
11921;SDS011;6021;51.182;3.160;2022-10-19T02:34:11;12.17;;;6.00;;
11921;SDS011;6021;51.182;3.160;2022-10-19T02:36:40;13.10;;;6.30;;
11921;SDS011;6021;51.182;3.160;2022-10-19T02:39:10;11.47;;;6.47;;
11921;SDS011;6021;51.182;3.160;2022-10-19T02:41:41;14.43;;;6.40;;
11921;SDS011;6021;51.182;3.160;2022-10-19T02:44:24;11.77;;;6.50;;
11921;SDS011;6021;51.182;3.160;2022-10-19T02:46:55;12.97;;;6.60;;
11921;SDS011;6021;51.182;3.160;2022-10-19T02:49:31;11.77;;;6.67;;
11921;SDS011;6021;51.182;3.160;2022-10-19T02:52:04;12.13;;;6.20;;
11921;SDS011;6021;51.182;3.160;2022-10-19T02:54:36;12.87;;;6.90;;
11921;SDS011;6021;51.182;3.160;2022-10-19T02:57:13;15.93;;;7.20;;
11921;SDS011;6021;51.182;3.160;2022-10-19T02:59:38;14.00;;;6.63;;
11921;SDS011;6021;51.182;3.160;2022-10-19T03:02:06;13.53;;;6.93;;
11921;SDS011;6021;51.182;3.160;2022-10-19T03:04:35;14.43;;;6.60;;
11921;SDS011;6021;51.182;3.160;2022-10-19T03:07:04;15.00;;;6.70;;
11921;SDS011;6021;51.182;3.160;2022-10-19T03:09:33;16.40;;;6.47;;
11921;SDS011;6021;51.182;3.160;2022-10-19T03:12:01;15.67;;;7.03;;
11921;SDS011;6021;51.182;3.160;2022-10-19T03:14:30;17.67;;;7.40;;
11921;SDS011;6021;51.182;3.160;2022-10-19T03:16:58;13.70;;;7.37;;
11921;SDS011;6021;51.182;3.160;2022-10-19T03:19:27;17.00;;;7.43;;
11921;SDS011;6021;51.182;3.160;2022-10-19T03:21:55;15.53;;;7.50;;
11921;SDS011;6021;51.182;3.160;2022-10-19T03:24:25;13.70;;;7.33;;
11921;SDS011;6021;51.182;3.160;2022-10-19T03:26:54;17.33;;;7.70;;
11921;SDS011;6021;51.182;3.160;2022-10-19T03:29:22;16.17;;;7.37;;
11921;SDS011;6021;51.182;3.160;2022-10-19T03:31:50;15.55;;;6.35;;
11921;SDS011;6021;51.182;3.160;2022-10-19T03:34:19;12.43;;;7.30;;
11921;SDS011;6021;51.182;3.160;2022-10-19T03:39:29;11.63;;;6.60;;
11921;SDS011;6021;51.182;3.160;2022-10-19T03:41:59;16.27;;;7.17;;
11921;SDS011;6021;51.182;3.160;2022-10-19T03:44:27;16.70;;;7.07;;
11921;SDS011;6021;51.182;3.160;2022-10-19T03:46:56;13.90;;;7.40;;
11921;SDS011;6021;51.182;3.160;2022-10-19T03:49:24;17.83;;;7.70;;
11921;SDS011;6021;51.182;3.160;2022-10-19T03:54:24;12.57;;;7.23;;
11921;SDS011;6021;51.182;3.160;2022-10-19T03:56:52;12.40;;;7.13;;
11921;SDS011;6021;51.182;3.160;2022-10-19T03:59:21;12.87;;;6.73;;
11921;SDS011;6021;51.182;3.160;2022-10-19T04:01:49;11.73;;;6.23;;
11921;SDS011;6021;51.182;3.160;2022-10-19T04:04:18;14.20;;;6.73;;
11921;SDS011;6021;51.182;3.160;2022-10-19T04:06:48;15.13;;;6.47;;
11921;SDS011;6021;51.182;3.160;2022-10-19T04:09:20;15.83;;;7.17;;
11921;SDS011;6021;51.182;3.160;2022-10-19T04:11:49;12.33;;;6.60;;
11921;SDS011;6021;51.182;3.160;2022-10-19T04:14:18;16.33;;;7.20;;
11921;SDS011;6021;51.182;3.160;2022-10-19T04:16:48;13.00;;;6.63;;
11921;SDS011;6021;51.182;3.160;2022-10-19T04:19:16;16.27;;;6.80;;
11921;SDS011;6021;51.182;3.160;2022-10-19T04:21:46;17.20;;;6.90;;
11921;SDS011;6021;51.182;3.160;2022-10-19T04:24:16;14.03;;;6.90;;
11921;SDS011;6021;51.182;3.160;2022-10-19T04:26:46;17.20;;;7.30;;
11921;SDS011;6021;51.182;3.160;2022-10-19T04:29:18;13.20;;;7.43;;
11921;SDS011;6021;51.182;3.160;2022-10-19T04:31:48;14.80;;;7.63;;
11921;SDS011;6021;51.182;3.160;2022-10-19T04:34:17;14.97;;;7.00;;
11921;SDS011;6021;51.182;3.160;2022-10-19T04:36:45;12.73;;;6.60;;
11921;SDS011;6021;51.182;3.160;2022-10-19T04:39:13;13.57;;;6.90;;
11921;SDS011;6021;51.182;3.160;2022-10-19T04:41:42;12.07;;;6.93;;
11921;SDS011;6021;51.182;3.160;2022-10-19T04:44:10;12.13;;;6.60;;
11921;SDS011;6021;51.182;3.160;2022-10-19T04:46:39;12.83;;;7.20;;
11921;SDS011;6021;51.182;3.160;2022-10-19T04:49:07;10.90;;;6.90;;
11921;SDS011;6021;51.182;3.160;2022-10-19T04:51:35;17.63;;;7.47;;
11921;SDS011;6021;51.182;3.160;2022-10-19T04:54:04;11.03;;;6.77;;
11921;SDS011;6021;51.182;3.160;2022-10-19T04:56:32;12.60;;;6.90;;
11921;SDS011;6021;51.182;3.160;2022-10-19T04:59:02;14.53;;;6.80;;
11921;SDS011;6021;51.182;3.160;2022-10-19T05:01:31;15.07;;;7.13;;
11921;SDS011;6021;51.182;3.160;2022-10-19T05:04:00;13.23;;;6.80;;
11921;SDS011;6021;51.182;3.160;2022-10-19T05:06:30;11.80;;;6.50;;
11921;SDS011;6021;51.182;3.160;2022-10-19T05:08:58;13.17;;;7.00;;
11921;SDS011;6021;51.182;3.160;2022-10-19T05:11:28;12.43;;;6.50;;
11921;SDS011;6021;51.182;3.160;2022-10-19T05:13:56;12.37;;;6.70;;
11921;SDS011;6021;51.182;3.160;2022-10-19T05:16:24;11.13;;;6.60;;
11921;SDS011;6021;51.182;3.160;2022-10-19T05:18:53;16.03;;;6.77;;
11921;SDS011;6021;51.182;3.160;2022-10-19T05:21:24;10.70;;;5.90;;
11921;SDS011;6021;51.182;3.160;2022-10-19T05:23:54;11.30;;;5.97;;
11921;SDS011;6021;51.182;3.160;2022-10-19T05:26:24;9.00;;;5.80;;
11921;SDS011;6021;51.182;3.160;2022-10-19T05:31:31;11.97;;;6.33;;
11921;SDS011;6021;51.182;3.160;2022-10-19T05:34:00;14.47;;;6.60;;
11921;SDS011;6021;51.182;3.160;2022-10-19T05:36:32;14.20;;;7.57;;
11921;SDS011;6021;51.182;3.160;2022-10-19T05:39:06;14.67;;;7.43;;
11921;SDS011;6021;51.182;3.160;2022-10-19T05:41:37;11.63;;;7.40;;
11921;SDS011;6021;51.182;3.160;2022-10-19T05:44:21;9.60;;;5.93;;
11921;SDS011;6021;51.182;3.160;2022-10-19T05:49:21;12.33;;;7.40;;
11921;SDS011;6021;51.182;3.160;2022-10-19T05:51:51;13.67;;;7.87;;
11921;SDS011;6021;51.182;3.160;2022-10-19T05:54:20;15.17;;;8.53;;
11921;SDS011;6021;51.182;3.160;2022-10-19T05:56:48;13.90;;;8.30;;
11921;SDS011;6021;51.182;3.160;2022-10-19T05:59:18;13.23;;;7.63;;
11921;SDS011;6021;51.182;3.160;2022-10-19T06:01:47;11.40;;;7.37;;
11921;SDS011;6021;51.182;3.160;2022-10-19T06:04:15;11.73;;;7.90;;
11921;SDS011;6021;51.182;3.160;2022-10-19T06:06:43;12.67;;;8.43;;
11921;SDS011;6021;51.182;3.160;2022-10-19T06:09:12;9.90;;;7.33;;
11921;SDS011;6021;51.182;3.160;2022-10-19T06:11:41;13.20;;;8.60;;
11921;SDS011;6021;51.182;3.160;2022-10-19T06:14:11;12.13;;;8.03;;
11921;SDS011;6021;51.182;3.160;2022-10-19T06:16:41;18.97;;;8.50;;
11921;SDS011;6021;51.182;3.160;2022-10-19T06:19:12;14.03;;;8.10;;
11921;SDS011;6021;51.182;3.160;2022-10-19T06:21:42;14.40;;;8.23;;
11921;SDS011;6021;51.182;3.160;2022-10-19T06:24:11;11.63;;;8.27;;
11921;SDS011;6021;51.182;3.160;2022-10-19T06:26:40;11.10;;;7.87;;
11921;SDS011;6021;51.182;3.160;2022-10-19T06:29:08;12.10;;;8.00;;
11921;SDS011;6021;51.182;3.160;2022-10-19T06:34:08;11.33;;;7.83;;
11921;SDS011;6021;51.182;3.160;2022-10-19T06:41:44;15.43;;;8.13;;
11921;SDS011;6021;51.182;3.160;2022-10-19T06:44:12;14.87;;;7.40;;
11921;SDS011;6021;51.182;3.160;2022-10-19T06:46:41;11.93;;;7.10;;
11921;SDS011;6021;51.182;3.160;2022-10-19T06:49:11;13.87;;;7.60;;
11921;SDS011;6021;51.182;3.160;2022-10-19T06:51:41;15.60;;;7.83;;
11921;SDS011;6021;51.182;3.160;2022-10-19T06:54:09;14.30;;;8.00;;
11921;SDS011;6021;51.182;3.160;2022-10-19T06:56:38;13.37;;;7.70;;
11921;SDS011;6021;51.182;3.160;2022-10-19T06:59:06;14.63;;;7.87;;
11921;SDS011;6021;51.182;3.160;2022-10-19T07:01:35;12.73;;;7.50;;
11921;SDS011;6021;51.182;3.160;2022-10-19T07:04:03;14.03;;;6.70;;
11921;SDS011;6021;51.182;3.160;2022-10-19T07:06:32;14.30;;;7.67;;
11921;SDS011;6021;51.182;3.160;2022-10-19T07:09:00;12.43;;;7.50;;
11921;SDS011;6021;51.182;3.160;2022-10-19T07:11:29;13.67;;;7.07;;
11921;SDS011;6021;51.182;3.160;2022-10-19T07:13:57;11.90;;;7.53;;
11921;SDS011;6021;51.182;3.160;2022-10-19T07:16:27;14.27;;;7.43;;
11921;SDS011;6021;51.182;3.160;2022-10-19T07:18:56;12.43;;;7.60;;
11921;SDS011;6021;51.182;3.160;2022-10-19T07:21:24;12.50;;;7.70;;
11921;SDS011;6021;51.182;3.160;2022-10-19T07:23:52;13.90;;;7.87;;
11921;SDS011;6021;51.182;3.160;2022-10-19T07:26:22;13.60;;;7.70;;
11921;SDS011;6021;51.182;3.160;2022-10-19T07:28:56;14.53;;;7.23;;
11921;SDS011;6021;51.182;3.160;2022-10-19T07:31:25;15.03;;;6.73;;
11921;SDS011;6021;51.182;3.160;2022-10-19T07:33:55;11.43;;;7.33;;
11921;SDS011;6021;51.182;3.160;2022-10-19T07:36:26;13.53;;;7.10;;
11921;SDS011;6021;51.182;3.160;2022-10-19T07:38:56;13.03;;;6.93;;
11921;SDS011;6021;51.182;3.160;2022-10-19T07:41:24;12.47;;;6.73;;
11921;SDS011;6021;51.182;3.160;2022-10-19T07:46:33;16.27;;;7.77;;
11921;SDS011;6021;51.182;3.160;2022-10-19T07:49:06;15.50;;;7.40;;
11921;SDS011;6021;51.182;3.160;2022-10-19T07:51:36;16.23;;;7.50;;
11921;SDS011;6021;51.182;3.160;2022-10-19T07:54:05;14.77;;;7.43;;
11921;SDS011;6021;51.182;3.160;2022-10-19T07:56:34;14.43;;;8.10;;
11921;SDS011;6021;51.182;3.160;2022-10-19T07:59:03;15.47;;;7.40;;
11921;SDS011;6021;51.182;3.160;2022-10-19T08:01:32;15.87;;;7.57;;
11921;SDS011;6021;51.182;3.160;2022-10-19T08:04:03;16.70;;;7.70;;
11921;SDS011;6021;51.182;3.160;2022-10-19T08:06:31;13.27;;;7.67;;
11921;SDS011;6021;51.182;3.160;2022-10-19T08:09:00;12.37;;;7.80;;
11921;SDS011;6021;51.182;3.160;2022-10-19T08:14:04;12.70;;;7.47;;
11921;SDS011;6021;51.182;3.160;2022-10-19T08:16:36;13.77;;;7.73;;
11921;SDS011;6021;51.182;3.160;2022-10-19T08:19:07;11.10;;;6.80;;
11921;SDS011;6021;51.182;3.160;2022-10-19T08:21:40;12.63;;;7.30;;
11921;SDS011;6021;51.182;3.160;2022-10-19T08:29:49;12.80;;;7.50;;
11921;SDS011;6021;51.182;3.160;2022-10-19T08:32:31;18.10;;;8.40;;
11921;SDS011;6021;51.182;3.160;2022-10-19T08:40:02;17.23;;;7.90;;
11921;SDS011;6021;51.182;3.160;2022-10-19T08:45:36;13.17;;;7.70;;
11921;SDS011;6021;51.182;3.160;2022-10-19T08:48:17;15.80;;;7.97;;
11921;SDS011;6021;51.182;3.160;2022-10-19T08:50:48;14.90;;;7.50;;
11921;SDS011;6021;51.182;3.160;2022-10-19T08:53:30;13.53;;;7.70;;
11921;SDS011;6021;51.182;3.160;2022-10-19T08:56:29;12.30;;;7.83;;
11921;SDS011;6021;51.182;3.160;2022-10-19T09:01:55;15.17;;;7.87;;
11921;SDS011;6021;51.182;3.160;2022-10-19T09:04:33;14.37;;;8.37;;
11921;SDS011;6021;51.182;3.160;2022-10-19T09:07:16;16.33;;;8.60;;
11921;SDS011;6021;51.182;3.160;2022-10-19T09:09:45;13.80;;;8.30;;
11921;SDS011;6021;51.182;3.160;2022-10-19T09:20:00;15.50;;;7.93;;
11921;SDS011;6021;51.182;3.160;2022-10-19T09:22:47;12.57;;;7.70;;
11921;SDS011;6021;51.182;3.160;2022-10-19T09:25:24;14.63;;;8.60;;
11921;SDS011;6021;51.182;3.160;2022-10-19T09:28:00;14.07;;;7.53;;
11921;SDS011;6021;51.182;3.160;2022-10-19T09:30:26;13.93;;;7.57;;
11921;SDS011;6021;51.182;3.160;2022-10-19T09:32:59;14.73;;;7.23;;
11921;SDS011;6021;51.182;3.160;2022-10-19T09:35:29;13.63;;;7.67;;
11921;SDS011;6021;51.182;3.160;2022-10-19T09:38:06;15.07;;;8.33;;
11921;SDS011;6021;51.182;3.160;2022-10-19T09:40:36;15.40;;;8.30;;
11921;SDS011;6021;51.182;3.160;2022-10-19T09:43:05;13.37;;;7.63;;
11921;SDS011;6021;51.182;3.160;2022-10-19T09:45:54;14.40;;;8.17;;
11921;SDS011;6021;51.182;3.160;2022-10-19T09:51:22;13.47;;;7.80;;
11921;SDS011;6021;51.182;3.160;2022-10-19T09:53:53;16.17;;;7.70;;
11921;SDS011;6021;51.182;3.160;2022-10-19T09:56:26;12.43;;;7.57;;
11921;SDS011;6021;51.182;3.160;2022-10-19T09:58:55;15.03;;;7.40;;
11921;SDS011;6021;51.182;3.160;2022-10-19T10:04:04;14.50;;;8.20;;
11921;SDS011;6021;51.182;3.160;2022-10-19T10:06:37;12.57;;;7.27;;
11921;SDS011;6021;51.182;3.160;2022-10-19T10:09:06;8.77;;;6.73;;
11921;SDS011;6021;51.182;3.160;2022-10-19T10:11:36;17.60;;;6.20;;
11921;SDS011;6021;51.182;3.160;2022-10-19T10:14:42;10.97;;;6.23;;
11921;SDS011;6021;51.182;3.160;2022-10-19T10:16:47;12.70;;;6.53;;
11921;SDS011;6021;51.182;3.160;2022-10-19T10:19:17;12.00;;;6.20;;
11921;SDS011;6021;51.182;3.160;2022-10-19T10:21:49;14.17;;;6.53;;
11921;SDS011;6021;51.182;3.160;2022-10-19T10:27:00;16.30;;;7.33;;
11921;SDS011;6021;51.182;3.160;2022-10-19T10:29:34;11.13;;;6.53;;
11921;SDS011;6021;51.182;3.160;2022-10-19T10:32:12;13.70;;;6.70;;
11921;SDS011;6021;51.182;3.160;2022-10-19T10:37:35;14.40;;;6.93;;
11921;SDS011;6021;51.182;3.160;2022-10-19T10:40:01;12.07;;;6.80;;
11921;SDS011;6021;51.182;3.160;2022-10-19T10:48:18;14.27;;;7.20;;
11921;SDS011;6021;51.182;3.160;2022-10-19T10:50:53;11.73;;;7.63;;
11921;SDS011;6021;51.182;3.160;2022-10-19T10:53:35;13.80;;;7.20;;
11921;SDS011;6021;51.182;3.160;2022-10-19T10:56:18;12.03;;;7.23;;
11921;SDS011;6021;51.182;3.160;2022-10-19T10:59:09;12.50;;;6.33;;
11921;SDS011;6021;51.182;3.160;2022-10-19T11:04:11;12.10;;;6.50;;
11921;SDS011;6021;51.182;3.160;2022-10-19T11:06:41;10.83;;;6.13;;
11921;SDS011;6021;51.182;3.160;2022-10-19T11:09:14;12.20;;;7.00;;
11921;SDS011;6021;51.182;3.160;2022-10-19T11:11:48;14.43;;;6.73;;
11921;SDS011;6021;51.182;3.160;2022-10-19T11:16:57;12.00;;;6.30;;
11921;SDS011;6021;51.182;3.160;2022-10-19T11:19:35;10.97;;;5.77;;
11921;SDS011;6021;51.182;3.160;2022-10-19T11:22:12;9.97;;;5.57;;
11921;SDS011;6021;51.182;3.160;2022-10-19T11:30:40;12.63;;;5.73;;
11921;SDS011;6021;51.182;3.160;2022-10-19T11:33:19;15.20;;;6.50;;
11921;SDS011;6021;51.182;3.160;2022-10-19T11:36:05;13.00;;;6.63;;
11921;SDS011;6021;51.182;3.160;2022-10-19T11:38:56;9.80;;;5.63;;
11921;SDS011;6021;51.182;3.160;2022-10-19T11:46:57;11.93;;;6.23;;
11921;SDS011;6021;51.182;3.160;2022-10-19T12:00:58;11.03;;;6.53;;
11921;SDS011;6021;51.182;3.160;2022-10-19T12:03:44;12.30;;;6.40;;
11921;SDS011;6021;51.182;3.160;2022-10-19T12:14:33;13.43;;;7.23;;
11921;SDS011;6021;51.182;3.160;2022-10-19T12:17:07;12.70;;;7.07;;
11921;SDS011;6021;51.182;3.160;2022-10-19T12:19:43;13.30;;;7.53;;
11921;SDS011;6021;51.182;3.160;2022-10-19T12:22:10;15.27;;;7.63;;
11921;SDS011;6021;51.182;3.160;2022-10-19T12:24:41;12.10;;;6.53;;
11921;SDS011;6021;51.182;3.160;2022-10-19T12:27:11;13.23;;;6.77;;
11921;SDS011;6021;51.182;3.160;2022-10-19T12:29:42;10.50;;;7.33;;
11921;SDS011;6021;51.182;3.160;2022-10-19T12:32:13;14.23;;;7.67;;
11921;SDS011;6021;51.182;3.160;2022-10-19T12:34:55;13.20;;;7.10;;
11921;SDS011;6021;51.182;3.160;2022-10-19T12:37:38;12.93;;;6.87;;
11921;SDS011;6021;51.182;3.160;2022-10-19T12:40:18;14.87;;;7.60;;
11921;SDS011;6021;51.182;3.160;2022-10-19T12:45:47;14.87;;;7.80;;
11921;SDS011;6021;51.182;3.160;2022-10-19T12:48:32;15.13;;;7.40;;
11921;SDS011;6021;51.182;3.160;2022-10-19T12:51:03;13.00;;;7.13;;
11921;SDS011;6021;51.182;3.160;2022-10-19T12:56:14;16.40;;;7.27;;
11921;SDS011;6021;51.182;3.160;2022-10-19T12:58:49;13.20;;;7.50;;
11921;SDS011;6021;51.182;3.160;2022-10-19T13:01:23;15.53;;;8.07;;
11921;SDS011;6021;51.182;3.160;2022-10-19T13:04:17;13.83;;;7.33;;
11921;SDS011;6021;51.182;3.160;2022-10-19T13:06:34;16.17;;;7.60;;
11921;SDS011;6021;51.182;3.160;2022-10-19T13:09:05;13.63;;;7.77;;
11921;SDS011;6021;51.182;3.160;2022-10-19T13:11:35;15.80;;;7.60;;
11921;SDS011;6021;51.182;3.160;2022-10-19T13:16:57;14.17;;;7.43;;
11921;SDS011;6021;51.182;3.160;2022-10-19T13:19:27;13.33;;;7.33;;
11921;SDS011;6021;51.182;3.160;2022-10-19T13:22:10;10.97;;;7.97;;
11921;SDS011;6021;51.182;3.160;2022-10-19T13:24:31;10.67;;;7.10;;
11921;SDS011;6021;51.182;3.160;2022-10-19T13:35:44;15.43;;;6.70;;
11921;SDS011;6021;51.182;3.160;2022-10-19T13:37:45;11.03;;;6.87;;
11921;SDS011;6021;51.182;3.160;2022-10-19T13:40:18;14.40;;;7.47;;
11921;SDS011;6021;51.182;3.160;2022-10-19T13:42:51;13.43;;;7.70;;
11921;SDS011;6021;51.182;3.160;2022-10-19T13:45:21;14.03;;;7.13;;
11921;SDS011;6021;51.182;3.160;2022-10-19T13:47:51;13.77;;;7.63;;
11921;SDS011;6021;51.182;3.160;2022-10-19T13:50:28;12.40;;;7.50;;
11921;SDS011;6021;51.182;3.160;2022-10-19T13:53:08;16.07;;;7.70;;
11921;SDS011;6021;51.182;3.160;2022-10-19T14:01:21;13.13;;;7.10;;
11921;SDS011;6021;51.182;3.160;2022-10-19T14:06:58;13.97;;;7.23;;
11921;SDS011;6021;51.182;3.160;2022-10-19T14:09:41;13.43;;;7.70;;
11921;SDS011;6021;51.182;3.160;2022-10-19T14:12:13;12.33;;;7.03;;
11921;SDS011;6021;51.182;3.160;2022-10-19T14:14:42;13.13;;;7.30;;
11921;SDS011;6021;51.182;3.160;2022-10-19T14:17:17;9.33;;;6.93;;
11921;SDS011;6021;51.182;3.160;2022-10-19T14:19:47;12.00;;;6.93;;
11921;SDS011;6021;51.182;3.160;2022-10-19T14:22:31;17.70;;;7.20;;
11921;SDS011;6021;51.182;3.160;2022-10-19T14:25:15;12.30;;;7.27;;
11921;SDS011;6021;51.182;3.160;2022-10-19T14:30:27;10.97;;;6.20;;
11921;SDS011;6021;51.182;3.160;2022-10-19T14:32:58;12.80;;;6.57;;
11921;SDS011;6021;51.182;3.160;2022-10-19T14:35:29;12.53;;;6.43;;
11921;SDS011;6021;51.182;3.160;2022-10-19T14:37:59;13.13;;;6.93;;
11921;SDS011;6021;51.182;3.160;2022-10-19T14:40:30;11.77;;;7.03;;
11921;SDS011;6021;51.182;3.160;2022-10-19T14:43:00;13.73;;;7.33;;
11921;SDS011;6021;51.182;3.160;2022-10-19T14:45:29;11.03;;;6.70;;
11921;SDS011;6021;51.182;3.160;2022-10-19T14:48:05;14.00;;;6.90;;
11921;SDS011;6021;51.182;3.160;2022-10-19T14:50:42;12.30;;;6.93;;
11921;SDS011;6021;51.182;3.160;2022-10-19T14:53:18;12.67;;;6.40;;
11921;SDS011;6021;51.182;3.160;2022-10-19T14:55:47;11.93;;;6.77;;
11921;SDS011;6021;51.182;3.160;2022-10-19T14:58:18;14.20;;;6.50;;
11921;SDS011;6021;51.182;3.160;2022-10-19T15:00:49;12.10;;;6.67;;
11921;SDS011;6021;51.182;3.160;2022-10-19T15:03:23;12.00;;;6.27;;
11921;SDS011;6021;51.182;3.160;2022-10-19T15:06:03;17.17;;;6.40;;
11921;SDS011;6021;51.182;3.160;2022-10-19T15:08:34;14.20;;;6.60;;
11921;SDS011;6021;51.182;3.160;2022-10-19T15:11:19;11.90;;;6.47;;
11921;SDS011;6021;51.182;3.160;2022-10-19T15:13:49;10.40;;;5.90;;
11921;SDS011;6021;51.182;3.160;2022-10-19T15:16:30;11.30;;;5.80;;
11921;SDS011;6021;51.182;3.160;2022-10-19T15:19:03;10.27;;;6.37;;
11921;SDS011;6021;51.182;3.160;2022-10-19T15:21:33;14.17;;;6.60;;
11921;SDS011;6021;51.182;3.160;2022-10-19T15:24:05;14.17;;;6.10;;
11921;SDS011;6021;51.182;3.160;2022-10-19T15:26:35;13.90;;;6.20;;
11921;SDS011;6021;51.182;3.160;2022-10-19T15:29:08;12.50;;;6.10;;
11921;SDS011;6021;51.182;3.160;2022-10-19T15:31:38;11.90;;;5.43;;
11921;SDS011;6021;51.182;3.160;2022-10-19T15:34:15;9.93;;;5.70;;
11921;SDS011;6021;51.182;3.160;2022-10-19T15:36:52;11.40;;;6.00;;
11921;SDS011;6021;51.182;3.160;2022-10-19T15:39:26;9.60;;;4.93;;
11921;SDS011;6021;51.182;3.160;2022-10-19T15:41:55;9.97;;;5.90;;
11921;SDS011;6021;51.182;3.160;2022-10-19T15:44:32;11.93;;;6.23;;
11921;SDS011;6021;51.182;3.160;2022-10-19T15:49:53;8.47;;;5.63;;
11921;SDS011;6021;51.182;3.160;2022-10-19T15:52:24;12.10;;;5.73;;
11921;SDS011;6021;51.182;3.160;2022-10-19T15:54:55;13.10;;;6.20;;
11921;SDS011;6021;51.182;3.160;2022-10-19T15:57:34;7.93;;;5.57;;
11921;SDS011;6021;51.182;3.160;2022-10-19T16:02:39;13.23;;;6.03;;
11921;SDS011;6021;51.182;3.160;2022-10-19T16:05:08;9.07;;;5.60;;
11921;SDS011;6021;51.182;3.160;2022-10-19T16:07:37;13.50;;;5.93;;
11921;SDS011;6021;51.182;3.160;2022-10-19T16:10:07;10.63;;;6.00;;
11921;SDS011;6021;51.182;3.160;2022-10-19T16:12:38;12.20;;;6.00;;
11921;SDS011;6021;51.182;3.160;2022-10-19T16:15:07;13.27;;;6.00;;
11921;SDS011;6021;51.182;3.160;2022-10-19T16:17:37;8.03;;;5.80;;
11921;SDS011;6021;51.182;3.160;2022-10-19T16:20:08;13.37;;;6.00;;
11921;SDS011;6021;51.182;3.160;2022-10-19T16:22:38;12.07;;;6.10;;
11921;SDS011;6021;51.182;3.160;2022-10-19T16:25:06;10.03;;;6.00;;
11921;SDS011;6021;51.182;3.160;2022-10-19T16:27:35;13.70;;;6.27;;
11921;SDS011;6021;51.182;3.160;2022-10-19T16:30:04;10.87;;;6.00;;
11921;SDS011;6021;51.182;3.160;2022-10-19T16:32:33;14.43;;;6.40;;
11921;SDS011;6021;51.182;3.160;2022-10-19T16:35:01;14.07;;;5.50;;
11921;SDS011;6021;51.182;3.160;2022-10-19T16:37:30;10.43;;;6.73;;
11921;SDS011;6021;51.182;3.160;2022-10-19T16:39:58;13.67;;;6.80;;
11921;SDS011;6021;51.182;3.160;2022-10-19T16:42:26;10.60;;;6.90;;
11921;SDS011;6021;51.182;3.160;2022-10-19T16:44:55;13.20;;;6.80;;
11921;SDS011;6021;51.182;3.160;2022-10-19T16:47:23;11.33;;;6.27;;
11921;SDS011;6021;51.182;3.160;2022-10-19T16:50:00;8.67;;;6.43;;
11921;SDS011;6021;51.182;3.160;2022-10-19T16:52:27;12.30;;;6.87;;
11921;SDS011;6021;51.182;3.160;2022-10-19T16:54:57;10.27;;;6.43;;
11921;SDS011;6021;51.182;3.160;2022-10-19T16:57:26;9.87;;;7.00;;
11921;SDS011;6021;51.182;3.160;2022-10-19T16:59:54;11.37;;;6.60;;
11921;SDS011;6021;51.182;3.160;2022-10-19T17:02:23;9.07;;;6.53;;
11921;SDS011;6021;51.182;3.160;2022-10-19T17:04:51;15.37;;;7.00;;
11921;SDS011;6021;51.182;3.160;2022-10-19T17:07:20;12.33;;;6.77;;
11921;SDS011;6021;51.182;3.160;2022-10-19T17:09:48;12.13;;;6.97;;
11921;SDS011;6021;51.182;3.160;2022-10-19T17:12:17;15.60;;;7.20;;
11921;SDS011;6021;51.182;3.160;2022-10-19T17:14:45;13.73;;;6.97;;
11921;SDS011;6021;51.182;3.160;2022-10-19T17:17:14;12.77;;;7.10;;
11921;SDS011;6021;51.182;3.160;2022-10-19T17:19:42;10.07;;;6.80;;
11921;SDS011;6021;51.182;3.160;2022-10-19T17:22:11;13.83;;;6.97;;
11921;SDS011;6021;51.182;3.160;2022-10-19T17:24:39;12.73;;;6.83;;
11921;SDS011;6021;51.182;3.160;2022-10-19T17:27:07;13.97;;;6.90;;
11921;SDS011;6021;51.182;3.160;2022-10-19T17:29:36;14.77;;;7.00;;
11921;SDS011;6021;51.182;3.160;2022-10-19T17:32:04;11.37;;;6.83;;
11921;SDS011;6021;51.182;3.160;2022-10-19T17:34:33;14.70;;;7.47;;
11921;SDS011;6021;51.182;3.160;2022-10-19T17:37:03;35.67;;;9.80;;
11921;SDS011;6021;51.182;3.160;2022-10-19T17:39:31;18.17;;;8.80;;
11921;SDS011;6021;51.182;3.160;2022-10-19T17:41:59;17.30;;;8.03;;
11921;SDS011;6021;51.182;3.160;2022-10-19T17:44:29;14.43;;;8.33;;
11921;SDS011;6021;51.182;3.160;2022-10-19T17:46:58;12.40;;;8.67;;
11921;SDS011;6021;51.182;3.160;2022-10-19T17:49:27;15.47;;;8.80;;
11921;SDS011;6021;51.182;3.160;2022-10-19T17:51:55;15.32;;;8.98;;